Buckland Airport

About
Name: Buckland Airport
Identifier:  BKC/PABL
Serves:  Buckland, Alaska
Owner:  State of Alaska DOT&PF - Northern Region
Public/Private:  Public
Local Time:  22. Aug 21:10 AKDT
Description: Buckland Airport is a state-owned public-use airport located one nautical mile southwest of the central business district of Buckland, a city in the Northwest Arctic Borough of the U.S. state of Alaska. The airport is situated on the Buckland River.
Source: Wikipedia
Location
Runways
Identifier Length (m/ft) Surface
11/29 3,200/3,200 Gravel
Flights per Day
2 flights
Distance: 109km (68mi)
Punctuality
71% (0 flights per day delayed)
Delay Average: 152 minutes
Current Weather
 12 C (Humidity: 76%)
  12kt (22km/h / 13mph) from 300°
  16km (10 mi.)
 
 METAR PABL 230456Z AUTO 30012KT 10SM CLR 12/08 A2971 RMK AO2 SLP063 T01220078

Current Flights

Departures
Number Departure To Airline
Arrivals
Number Arrival From Airline
 8E642 16:30 +281  Deering Bering Air
 8E641 11:25 +1220  Kotzebue Bering Air

Current Delays

Departures
N/A
Arrivals
N/A

Destinations

Top Destinations
Airport Flights
per week
Seats
per week
  Kotzebue (OTZ) 2 - 0 0
  Deering (DRG) 0 - 0 0

Airlines & Planes

Top Airlines
Airline Flights
per Day
Seats
per Day
Bering Air 0 -
Top Plane Types
Model Flights Seats
Piper PA-31-350 0.4/day - 0
Cessna C208 0.0/day - 0